Time;durP1;ratioP1;P1;durP2;ratioP2;P2;SDS_P1;SDS_P2;PMS_P1;PMS_P2;Temp;Humidity;BMP_temperature;BMP_pressure;BME280_temperature;BME280_humidity;BME280_pressure;Samples;Min_cycle;Max_cycle;Signal;HPM_P1;HPM_P2
2023/03/18 00:00:38;;;;;;;;;;;;;;;5.15;100.00;95253.69;10404112;28;2516;-68
2023/03/18 00:05:46;;;;;;;;;;;;;;;5.14;100.00;95260.88;10404397;28;2171;-68
2023/03/18 00:10:49;;;;;;;;;;;;;;;5.14;100.00;95265.41;10404149;28;2140;-67
2023/03/18 00:15:51;;;;;;;;;;;;;;;5.10;100.00;95264.34;10405047;28;2201;-68
2023/03/18 00:20:54;;;;;;;;;;;;;;;5.12;100.00;95279.00;10405796;28;1992;-65
2023/03/18 00:25:58;;;;;;;;;;;;;;;5.10;100.00;95264.34;10409878;28;2212;-66
2023/03/18 00:31:02;;;;;;;;;;;;;;;5.08;100.00;95263.75;10400242;28;2147;-70
2023/03/18 00:36:05;;;;;;;;;;;;;;;5.07;100.00;95278.94;10411306;28;2187;-68
2023/03/18 00:41:14;;;;;;;;;;;;;;;5.08;100.00;95285.06;10407584;28;2232;-67
2023/03/18 00:46:18;;;;;;;;;;;;;;;5.04;100.00;95287.44;10403956;28;2263;-67
2023/03/18 00:51:21;;;;;;;;;;;;;;;5.01;100.00;95292.47;10401263;28;2036;-67
2023/03/18 00:56:25;;;;;;;;;;;;;;;5.00;100.00;95289.00;10406011;28;2203;-67
2023/03/18 01:01:27;;;;;;;;;;;;;;;4.99;100.00;95291.91;10402183;28;2196;-69
2023/03/18 01:06:30;;;;;;;;;;;;;;;4.95;100.00;95293.47;10402558;28;2122;-65
2023/03/18 01:11:33;;;;;;;;;;;;;;;4.96;100.00;95284.41;10399527;28;2259;-67
2023/03/18 01:16:35;;;;;;;;;;;;;;;4.96;100.00;95284.41;10400839;28;2186;-67
2023/03/18 01:21:38;;;;;;;;;;;;;;;4.93;100.00;95284.91;10408002;28;2124;-66
2023/03/18 01:26:40;;;;;;;;;;;;;;;4.93;100.00;95279.59;10405863;28;2223;-67
2023/03/18 01:31:44;;;;;;;;;;;;;;;4.90;100.00;95280.91;10400817;28;2180;-67
2023/03/18 01:36:48;;;;;;;;;;;;;;;4.84;100.00;95279.25;10399587;28;2228;-67
2023/03/18 01:41:51;;;;;;;;;;;;;;;4.87;100.00;95276.88;10401698;28;2296;-66
2023/03/18 01:46:55;;;;;;;;;;;;;;;4.92;100.00;95278.00;10411237;28;1998;-65
2023/03/18 01:51:58;;;;;;;;;;;;;;;5.06;100.00;95284.53;10411545;28;2030;-67
2023/03/18 01:57:01;;;;;;;;;;;;;;;5.10;100.00;95289.13;10410020;28;2297;-71
2023/03/18 02:02:05;;;;;;;;;;;;;;;5.20;100.00;95285.72;10403615;28;2235;-70
2023/03/18 02:07:08;;;;;;;;;;;;;;;5.31;100.00;95286.66;10401759;28;2220;-67
2023/03/18 02:12:11;;;;;;;;;;;;;;;5.30;100.00;95285.84;10399483;28;2268;-67
2023/03/18 02:17:15;;;;;;;;;;;;;;;5.27;100.00;95291.66;10395125;28;2314;-67
2023/03/18 02:22:18;;;;;;;;;;;;;;;5.38;100.00;95292.56;10403960;28;2137;-68
2023/03/18 02:27:20;;;;;;;;;;;;;;;5.32;100.00;95305.03;10410578;28;2254;-66
2023/03/18 02:32:23;;;;;;;;;;;;;;;5.22;100.00;95294.31;10410445;28;2513;-66
2023/03/18 02:37:26;;;;;;;;;;;;;;;5.18;100.00;95303.03;10402746;28;2135;-67
2023/03/18 02:42:28;;;;;;;;;;;;;;;5.17;100.00;95298.78;10405955;28;1999;-69
2023/03/18 02:47:32;;;;;;;;;;;;;;;5.15;100.00;95305.16;10401975;28;2180;-66
2023/03/18 02:52:35;;;;;;;;;;;;;;;5.31;100.00;95308.78;10402823;28;2232;-66
2023/03/18 02:57:37;;;;;;;;;;;;;;;5.54;100.00;95312.19;10406169;28;2299;-67
2023/03/18 03:02:40;;;;;;;;;;;;;;;5.63;100.00;95314.13;10408208;28;2298;-67
2023/03/18 03:07:43;;;;;;;;;;;;;;;5.78;100.00;95308.13;10402811;28;2143;-67
2023/03/18 03:12:46;;;;;;;;;;;;;;;5.87;100.00;95316.47;10403452;28;2244;-67
2023/03/18 03:17:58;;;;;;;;;;;;;;;6.04;100.00;95316.34;10405357;28;2008;-65
2023/03/18 03:23:01;;;;;;;;;;;;;;;6.17;100.00;95323.91;10406524;28;2206;-66
2023/03/18 03:28:03;;;;;;;;;;;;;;;6.20;100.00;95328.75;10402655;28;2202;-66
2023/03/18 03:33:06;;;;;;;;;;;;;;;6.17;100.00;95340.75;10401929;28;2295;-69
2023/03/18 03:38:09;;;;;;;;;;;;;;;6.28;100.00;95340.81;10403647;28;2337;-66
2023/03/18 03:43:11;;;;;;;;;;;;;;;6.36;100.00;95332.31;10400931;28;2105;-67
2023/03/18 03:48:14;;;;;;;;;;;;;;;6.26;100.00;95340.25;10402469;28;1958;-67
2023/03/18 03:53:16;;;;;;;;;;;;;;;6.25;100.00;95342.13;10404773;28;1996;-68
2023/03/18 03:58:19;;;;;;;;;;;;;;;6.37;100.00;95337.41;10404347;28;2175;-69
2023/03/18 04:03:22;;;;;;;;;;;;;;;6.33;100.00;95352.31;10403284;28;2190;-70
2023/03/18 04:08:25;;;;;;;;;;;;;;;6.23;100.00;95350.41;10405352;28;2314;-67
2023/03/18 04:13:29;;;;;;;;;;;;;;;6.21;100.00;95354.38;10400749;28;2209;-70
2023/03/18 04:18:32;;;;;;;;;;;;;;;6.07;100.00;95358.53;10400118;28;2226;-68
2023/03/18 04:23:34;;;;;;;;;;;;;;;5.99;100.00;95364.34;10410504;28;2151;-69
2023/03/18 04:28:37;;;;;;;;;;;;;;;5.90;100.00;95364.75;10398925;28;2204;-65
2023/03/18 04:33:39;;;;;;;;;;;;;;;5.85;100.00;95367.41;10403000;28;2194;-68
2023/03/18 04:38:42;;;;;;;;;;;;;;;5.85;100.00;95367.41;10397072;28;2268;-67
2023/03/18 04:43:44;;;;;;;;;;;;;;;5.79;100.00;95363.09;10403482;28;2045;-67
2023/03/18 04:48:46;;;;;;;;;;;;;;;5.75;100.00;95367.31;10397515;28;2296;-65
2023/03/18 04:53:49;;;;;;;;;;;;;;;5.74;100.00;95384.38;10398327;28;2550;-66
2023/03/18 04:58:52;;;;;;;;;;;;;;;5.70;100.00;95367.25;10398595;28;2161;-66
2023/03/18 05:03:54;;;;;;;;;;;;;;;5.71;100.00;95363.53;10392592;28;2126;-66
2023/03/18 05:08:58;;;;;;;;;;;;;;;5.72;100.00;95362.47;10415149;28;2210;-70
2023/03/18 05:14:00;;;;;;;;;;;;;;;5.75;100.00;95367.31;10397387;28;2610;-66
2023/03/18 05:19:03;;;;;;;;;;;;;;;5.72;100.00;95362.47;10394460;28;2049;-66
2023/03/18 05:24:06;;;;;;;;;;;;;;;5.80;100.00;95356.69;10437323;28;2128;-68
2023/03/18 05:29:09;;;;;;;;;;;;;;;5.84;100.00;95379.13;10406797;28;1997;-67
2023/03/18 05:34:13;;;;;;;;;;;;;;;5.87;100.00;95375.16;10410160;28;2013;-69
2023/03/18 05:39:15;;;;;;;;;;;;;;;5.94;100.00;95376.56;10415677;28;2222;-67
2023/03/18 05:44:18;;;;;;;;;;;;;;;6.00;100.00;95372.09;10402726;28;2123;-68
2023/03/18 05:49:22;;;;;;;;;;;;;;;6.07;100.00;95370.00;10402470;28;2157;-68
2023/03/18 05:54:26;;;;;;;;;;;;;;;6.21;100.00;95370.38;10398760;28;2213;-67
2023/03/18 05:59:30;;;;;;;;;;;;;;;6.29;100.00;95383.25;10412690;28;2160;-68
2023/03/18 06:04:33;;;;;;;;;;;;;;;6.46;100.00;95383.91;10407917;28;2172;-67
2023/03/18 06:09:35;;;;;;;;;;;;;;;6.57;100.00;95382.13;10409495;28;2119;-67
2023/03/18 06:14:38;;;;;;;;;;;;;;;6.74;100.00;95387.28;10403744;28;2293;-66
2023/03/18 06:19:41;;;;;;;;;;;;;;;6.87;100.00;95384.16;10408747;28;1969;-70
2023/03/18 06:24:44;;;;;;;;;;;;;;;7.11;100.00;95387.19;10413830;28;2340;-71
2023/03/18 06:29:49;;;;;;;;;;;;;;;7.27;100.00;95396.09;10409389;28;2431;-67
2023/03/18 06:34:52;;;;;;;;;;;;;;;7.44;100.00;95387.84;10412913;28;2200;-71
2023/03/18 06:39:54;;;;;;;;;;;;;;;7.63;100.00;95380.94;10422402;28;2073;-67
2023/03/18 06:44:57;;;;;;;;;;;;;;;7.84;100.00;95387.97;10405746;28;2070;-68
2023/03/18 06:50:00;;;;;;;;;;;;;;;8.06;100.00;95390.38;10403170;28;2208;-74
2023/03/18 06:55:05;;;;;;;;;;;;;;;8.34;100.00;95388.28;10440537;28;2262;-69
2023/03/18 07:00:10;;;;;;;;;;;;;;;8.71;100.00;95382.59;10403061;28;2145;-70
2023/03/18 07:05:15;;;;;;;;;;;;;;;9.01;100.00;95392.47;10406108;28;2139;-73
2023/03/18 07:10:19;;;;;;;;;;;;;;;9.32;100.00;95395.03;10405248;28;2184;-67
2023/03/18 07:15:22;;;;;;;;;;;;;;;9.44;100.00;95390.16;10404631;28;2334;-67
2023/03/18 07:20:25;;;;;;;;;;;;;;;9.91;100.00;95391.50;10401769;28;2160;-69
2023/03/18 07:25:28;;;;;;;;;;;;;;;10.12;100.00;95390.31;10409420;28;2225;-67
2023/03/18 07:30:32;;;;;;;;;;;;;;;10.36;100.00;95398.47;10401858;28;2185;-72
2023/03/18 07:35:36;;;;;;;;;;;;;;;10.60;100.00;95400.44;10402390;28;2198;-71
2023/03/18 07:40:40;;;;;;;;;;;;;;;10.76;100.00;95391.94;10412433;28;2152;-67
2023/03/18 07:45:44;;;;;;;;;;;;;;;10.97;100.00;95403.31;10400585;28;2239;-67
2023/03/18 07:50:46;;;;;;;;;;;;;;;11.26;100.00;95397.88;10400247;28;2295;-67
2023/03/18 07:55:49;;;;;;;;;;;;;;;11.59;100.00;95408.78;10398250;28;2264;-68
2023/03/18 08:00:53;;;;;;;;;;;;;;;11.86;97.39;95402.81;10404389;28;2088;-67
2023/03/18 08:05:56;;;;;;;;;;;;;;;12.05;93.87;95409.00;10397997;28;2060;-66
2023/03/18 08:11:01;;;;;;;;;;;;;;;12.40;90.06;95404.97;10402691;28;2052;-66
2023/03/18 08:16:03;;;;;;;;;;;;;;;12.81;86.86;95407.00;10406387;28;2019;-67
2023/03/18 08:21:08;;;;;;;;;;;;;;;12.78;86.34;95402.19;10406309;28;1938;-68
2023/03/18 08:26:11;;;;;;;;;;;;;;;12.87;82.21;95411.22;10402896;28;1967;-71
2023/03/18 08:31:14;;;;;;;;;;;;;;;13.05;80.31;95406.84;10392730;28;1930;-71
2023/03/18 08:36:17;;;;;;;;;;;;;;;13.26;76.27;95407.28;10396608;28;2098;-72
2023/03/18 08:41:21;;;;;;;;;;;;;;;13.26;75.83;95401.91;10404220;28;1970;-71
2023/03/18 08:46:23;;;;;;;;;;;;;;;13.27;72.82;95397.28;10400992;28;2018;-72
2023/03/18 08:51:26;;;;;;;;;;;;;;;13.67;72.35;95406.47;10398387;28;2231;-70
2023/03/18 08:56:29;;;;;;;;;;;;;;;13.75;73.90;95397.69;10399775;28;1979;-71
2023/03/18 09:01:32;;;;;;;;;;;;;;;13.89;69.83;95398.44;10397716;28;1988;-71
2023/03/18 09:06:35;;;;;;;;;;;;;;;14.30;65.90;95402.94;10398144;28;2109;-73
2023/03/18 09:11:38;;;;;;;;;;;;;;;14.55;63.37;95399.66;10404436;28;2003;-73
2023/03/18 09:16:40;;;;;;;;;;;;;;;14.83;62.76;95394.13;10400079;28;2040;-72
2023/03/18 09:21:43;;;;;;;;;;;;;;;15.24;61.85;95393.06;10407987;28;2010;-74
2023/03/18 09:26:46;;;;;;;;;;;;;;;15.67;57.48;95395.94;10416312;28;2204;-72
2023/03/18 09:31:49;;;;;;;;;;;;;;;15.67;54.69;95395.94;10393996;28;1993;-69
2023/03/18 09:36:52;;;;;;;;;;;;;;;15.49;54.36;95394.25;10401930;28;2018;-75
2023/03/18 09:41:54;;;;;;;;;;;;;;;15.52;55.30;95394.41;10398145;28;2017;-74
2023/03/18 09:46:57;;;;;;;;;;;;;;;15.52;56.55;95386.28;10400977;28;1986;-76
2023/03/18 09:52:00;;;;;;;;;;;;;;;15.13;56.54;95381.69;10415261;28;1974;-70
2023/03/18 09:57:02;;;;;;;;;;;;;;;15.07;57.30;95388.34;10400462;28;1959;-68
2023/03/18 10:02:05;;;;;;;;;;;;;;;15.33;56.95;95388.47;10392064;28;2053;-76
2023/03/18 10:07:08;;;;;;;;;;;;;;;15.29;55.38;95401.84;10399719;28;1895;-69
2023/03/18 10:12:11;;;;;;;;;;;;;;;15.40;55.34;95403.16;10401440;28;1961;-67
2023/03/18 10:17:14;;;;;;;;;;;;;;;15.29;53.79;95398.34;10401177;28;2242;-67
2023/03/18 10:22:17;;;;;;;;;;;;;;;15.57;52.50;95396.19;10398092;28;1975;-67
2023/03/18 10:27:21;;;;;;;;;;;;;;;15.60;50.62;95396.38;10429694;28;1962;-67
2023/03/18 10:32:23;;;;;;;;;;;;;;;15.82;48.44;95394.69;10397981;28;2032;-68
2023/03/18 10:37:29;;;;;;;;;;;;;;;15.47;48.10;95393.78;10403080;28;2050;-69
2023/03/18 10:42:32;;;;;;;;;;;;;;;15.83;48.32;95385.44;10406597;28;2091;-66
2023/03/18 10:47:34;;;;;;;;;;;;;;;15.59;48.23;95378.53;10404171;28;1973;-70
2023/03/18 10:52:37;;;;;;;;;;;;;;;15.65;48.91;95376.50;10409050;28;1966;-71
2023/03/18 10:57:39;;;;;;;;;;;;;;;15.31;48.49;95361.69;10413156;28;1965;-67
2023/03/18 11:02:51;;;;;;;;;;;;;;;15.53;47.48;95360.81;10425428;28;2062;-70
2023/03/18 11:07:54;;;;;;;;;;;;;;;15.76;47.78;95355.31;10406862;28;2087;-68
2023/03/18 11:12:57;;;;;;;;;;;;;;;15.71;47.13;95352.75;10411710;28;2036;-68
2023/03/18 11:17:59;;;;;;;;;;;;;;;15.71;47.71;95348.13;10404215;28;2002;-67
2023/03/18 11:23:10;;;;;;;;;;;;;;;15.46;48.34;95336.13;10404850;28;2050;-70
2023/03/18 11:28:13;;;;;;;;;;;;;;;15.19;48.86;95334.41;10400054;28;2055;-67
2023/03/18 11:33:16;;;;;;;;;;;;;;;15.37;47.89;95316.31;10399683;28;2018;-67
2023/03/18 11:38:18;;;;;;;;;;;;;;;15.23;50.67;95315.66;10406157;28;2042;-70
2023/03/18 11:43:22;;;;;;;;;;;;;;;15.06;52.00;95313.66;10398572;28;2272;-66
2023/03/18 11:48:24;;;;;;;;;;;;;;;15.05;52.48;95304.75;10406791;28;1977;-66
2023/03/18 11:53:27;;;;;;;;;;;;;;;15.06;52.21;95295.50;10404257;28;2161;-67
2023/03/18 11:58:30;;;;;;;;;;;;;;;15.09;51.88;95288.69;10403374;28;2140;-67
2023/03/18 12:03:34;;;;;;;;;;;;;;;14.93;52.61;95285.59;10400120;28;2043;-66
2023/03/18 12:08:36;;;;;;;;;;;;;;;15.05;51.77;95276.88;10401814;28;2064;-67
2023/03/18 12:13:39;;;;;;;;;;;;;;;15.26;51.25;95274.38;10402604;28;1969;-67
2023/03/18 12:18:43;;;;;;;;;;;;;;;15.16;51.50;95277.41;10400774;28;1989;-65
2023/03/18 12:23:46;;;;;;;;;;;;;;;15.11;50.76;95281.03;10403146;28;2216;-66
2023/03/18 12:28:53;;;;;;;;;;;;;;;15.34;50.83;95282.56;10400985;28;1966;-69
2023/03/18 12:33:56;;;;;;;;;;;;;;;15.45;50.37;95269.50;10408977;28;1997;-67
2023/03/18 12:39:09;;;;;;;;;;;;;;;15.23;50.67;95272.31;10400425;28;1946;-67
2023/03/18 12:44:12;;;;;;;;;;;;;;;15.36;50.07;95272.19;10430097;28;1969;-66
2023/03/18 12:49:15;;;;;;;;;;;;;;;15.30;50.42;95267.25;10399828;28;2001;-67
2023/03/18 12:54:19;;;;;;;;;;;;;;;15.23;49.29;95270.41;10399218;28;1946;-68
2023/03/18 12:59:21;;;;;;;;;;;;;;;15.41;49.94;95268.53;10398588;28;1949;-66
2023/03/18 13:04:25;;;;;;;;;;;;;;;15.49;50.78;95265.03;10402970;28;2063;-70
2023/03/18 13:09:28;;;;;;;;;;;;;;;15.54;49.51;95274.94;10399752;28;2149;-67
2023/03/18 13:14:31;;;;;;;;;;;;;;;15.52;50.49;95267.09;10409288;28;1935;-68
2023/03/18 13:19:33;;;;;;;;;;;;;;;15.57;49.75;95269.66;10400568;28;2170;-67
2023/03/18 13:24:36;;;;;;;;;;;;;;;15.57;48.76;95266.97;10397736;28;2263;-74
2023/03/18 13:29:39;;;;;;;;;;;;;;;15.54;49.32;95261.38;10397918;28;2023;-70
2023/03/18 13:34:42;;;;;;;;;;;;;;;15.70;49.38;95248.19;10395057;28;1954;-67
2023/03/18 13:39:45;;;;;;;;;;;;;;;15.52;50.15;95248.13;10397720;28;2105;-68
2023/03/18 13:44:48;;;;;;;;;;;;;;;15.67;49.21;95233.38;10397271;28;2002;-67
2023/03/18 13:49:51;;;;;;;;;;;;;;;15.64;49.44;95229.38;10395817;28;1994;-70
2023/03/18 13:54:56;;;;;;;;;;;;;;;15.58;48.63;95232.53;10395933;28;2065;-68
2023/03/18 13:59:59;;;;;;;;;;;;;;;15.69;49.33;95225.72;10396535;28;2054;-68
2023/03/18 14:05:03;;;;;;;;;;;;;;;15.78;48.96;95218.41;10400493;28;1930;-68
2023/03/18 14:10:06;;;;;;;;;;;;;;;15.80;49.48;95215.38;10400159;28;1966;-68
2023/03/18 14:15:24;;;;;;;;;;;;;;;15.76;49.29;95214.41;10398211;28;2053;-68
2023/03/18 14:20:27;;;;;;;;;;;;;;;15.86;49.60;95205.97;10420688;28;1918;-66
2023/03/18 14:25:29;;;;;;;;;;;;;;;16.00;48.99;95201.16;10405458;28;2033;-68
2023/03/18 14:30:32;;;;;;;;;;;;;;;15.90;50.04;95198.75;10410074;28;1925;-68
2023/03/18 14:35:35;;;;;;;;;;;;;;;15.87;48.64;95204.84;10409351;28;2032;-67
2023/03/18 14:40:37;;;;;;;;;;;;;;;15.76;49.93;95206.28;10406375;28;2064;-69
2023/03/18 14:45:40;;;;;;;;;;;;;;;15.80;50.05;95199.91;10406044;28;1989;-67
2023/03/18 14:50:44;;;;;;;;;;;;;;;15.87;49.91;95196.69;10409507;28;1914;-68
2023/03/18 14:55:46;;;;;;;;;;;;;;;15.77;50.63;95191.59;10403343;28;2046;-69
2023/03/18 15:00:49;;;;;;;;;;;;;;;15.73;51.28;95187.97;10399839;28;1992;-67
2023/03/18 15:05:53;;;;;;;;;;;;;;;15.74;51.01;95179.50;10403462;28;1962;-67
2023/03/18 15:10:55;;;;;;;;;;;;;;;15.77;50.19;95178.06;10405135;28;1970;-68
2023/03/18 15:15:59;;;;;;;;;;;;;;;15.82;50.19;95173.25;10402384;28;2158;-68
2023/03/18 15:21:01;;;;;;;;;;;;;;;16.01;49.29;95175.63;10403995;28;2117;-68
2023/03/18 15:26:04;;;;;;;;;;;;;;;16.12;49.09;95168.75;10407506;28;2008;-67
2023/03/18 15:31:08;;;;;;;;;;;;;;;16.19;48.69;95173.69;10400808;28;2029;-67
2023/03/18 15:36:10;;;;;;;;;;;;;;;16.06;49.73;95175.47;10437897;28;2001;-67
2023/03/18 15:41:15;;;;;;;;;;;;;;;16.01;50.00;95170.19;10408816;28;2011;-68
2023/03/18 15:46:18;;;;;;;;;;;;;;;16.10;50.17;95176.41;10403900;28;2019;-66
2023/03/18 15:51:31;;;;;;;;;;;;;;;15.99;50.38;95185.22;10402326;28;2046;-72
2023/03/18 15:56:43;;;;;;;;;;;;;;;15.73;50.90;95177.91;10405462;28;2127;-66
2023/03/18 16:01:47;;;;;;;;;;;;;;;15.55;51.47;95171.69;10407549;28;1950;-65
2023/03/18 16:06:51;;;;;;;;;;;;;;;15.45;52.66;95177.41;10403214;28;2093;-65
2023/03/18 16:11:53;;;;;;;;;;;;;;;15.39;53.31;95181.38;10405373;28;1985;-64
2023/03/18 16:16:57;;;;;;;;;;;;;;;15.39;53.13;95179.47;10404506;28;2077;-64
2023/03/18 16:21:59;;;;;;;;;;;;;;;15.32;53.89;95178.34;10408998;28;2072;-64
2023/03/18 16:27:02;;;;;;;;;;;;;;;15.21;54.54;95193.34;10399387;28;1998;-64
2023/03/18 16:32:05;;;;;;;;;;;;;;;15.00;54.75;95191.22;10402626;28;1933;-64
2023/03/18 16:37:08;;;;;;;;;;;;;;;14.86;55.12;95182.44;10408452;28;1910;-65
2023/03/18 16:42:21;;;;;;;;;;;;;;;14.78;55.77;95196.75;10422074;28;1900;-65
2023/03/18 16:47:23;;;;;;;;;;;;;;;14.66;56.60;95200.03;10409890;28;1989;-65
2023/03/18 16:52:36;;;;;;;;;;;;;;;14.60;57.92;95214.81;10413543;28;1934;-65
2023/03/18 16:57:39;;;;;;;;;;;;;;;14.47;60.15;95221.91;10405516;28;2286;-65
2023/03/18 17:02:41;;;;;;;;;;;;;;;14.30;62.48;95225.28;10404944;28;1910;-64
2023/03/18 17:07:44;;;;;;;;;;;;;;;14.09;66.51;95224.22;10407479;28;1943;-65
2023/03/18 17:12:47;;;;;;;;;;;;;;;13.90;70.39;95226.34;10409757;28;1972;-64
2023/03/18 17:17:51;;;;;;;;;;;;;;;13.68;75.43;95235.25;10406503;28;2357;-65
2023/03/18 17:22:55;;;;;;;;;;;;;;;13.48;80.22;95241.88;10402315;28;1855;-67
2023/03/18 17:27:58;;;;;;;;;;;;;;;13.32;84.35;95248.75;10402361;28;1899;-66
2023/03/18 17:33:01;;;;;;;;;;;;;;;13.16;86.93;95249.03;10402007;28;1922;-64
2023/03/18 17:38:04;;;;;;;;;;;;;;;12.86;91.31;95252.38;10401797;28;2181;-65
2023/03/18 17:43:08;;;;;;;;;;;;;;;12.81;92.56;95255.97;10429327;28;1962;-65
2023/03/18 17:48:11;;;;;;;;;;;;;;;12.73;93.31;95243.19;10410483;28;1932;-64
2023/03/18 17:53:14;;;;;;;;;;;;;;;12.48;95.31;95243.66;10413040;28;1925;-63
2023/03/18 17:58:17;;;;;;;;;;;;;;;12.41;95.98;95236.78;10410791;28;1918;-67
2023/03/18 18:03:21;;;;;;;;;;;;;;;12.33;96.37;95234.75;10405377;28;1949;-65
2023/03/18 18:08:25;;;;;;;;;;;;;;;12.22;97.45;95243.34;10414818;28;1910;-65
2023/03/18 18:13:28;;;;;;;;;;;;;;;11.99;99.21;95243.16;10398003;28;1951;-64
2023/03/18 18:18:31;;;;;;;;;;;;;;;11.79;100.00;95246.97;10410665;28;1920;-66
2023/03/18 18:23:34;;;;;;;;;;;;;;;11.87;99.97;95251.69;10399893;28;1899;-65
2023/03/18 18:28:38;;;;;;;;;;;;;;;11.68;100.00;95247.41;10402196;28;1966;-65
2023/03/18 18:33:41;;;;;;;;;;;;;;;11.45;100.00;95247.22;10440697;28;2070;-65
2023/03/18 18:38:43;;;;;;;;;;;;;;;11.25;100.00;95247.47;10395363;28;2018;-66
2023/03/18 18:43:46;;;;;;;;;;;;;;;11.28;100.00;95245.03;10401806;28;1950;-65
2023/03/18 18:48:48;;;;;;;;;;;;;;;10.99;100.00;95244.34;10405753;28;1939;-67
2023/03/18 18:53:54;;;;;;;;;;;;;;;10.94;100.00;95236.31;10404615;28;2339;-64
2023/03/18 18:58:57;;;;;;;;;;;;;;;10.83;100.00;95241.84;10427476;28;1995;-68
2023/03/18 19:04:01;;;;;;;;;;;;;;;10.86;100.00;95240.47;10407821;28;1945;-65
2023/03/18 19:09:03;;;;;;;;;;;;;;;10.73;100.00;95252.72;10404240;28;1997;-66
2023/03/18 19:14:07;;;;;;;;;;;;;;;10.71;100.00;95254.91;10436833;28;2007;-67
2023/03/18 19:19:09;;;;;;;;;;;;;;;10.76;100.00;95251.34;10405987;28;1978;-74
2023/03/18 19:24:12;;;;;;;;;;;;;;;10.68;100.00;95249.28;10409247;28;1946;-73
2023/03/18 19:29:15;;;;;;;;;;;;;;;10.57;100.00;95254.00;10403210;28;1988;-67
2023/03/18 19:34:18;;;;;;;;;;;;;;;10.38;100.00;95250.44;10394005;28;2055;-66
2023/03/18 19:39:20;;;;;;;;;;;;;;;10.43;100.00;95263.78;10405153;28;2061;-65
2023/03/18 19:44:23;;;;;;;;;;;;;;;10.19;100.00;95275.28;10412312;28;1978;-64
2023/03/18 19:49:26;;;;;;;;;;;;;;;10.08;100.00;95273.78;10412160;28;1985;-71
2023/03/18 19:54:31;;;;;;;;;;;;;;;10.01;100.00;95263.38;10412370;28;2235;-67
2023/03/18 19:59:33;;;;;;;;;;;;;;;9.98;100.00;95265.81;10407703;28;1979;-64
2023/03/18 20:04:42;;;;;;;;;;;;;;;9.87;100.00;95269.69;10411191;28;1942;-65
2023/03/18 20:09:44;;;;;;;;;;;;;;;9.94;100.00;95272.84;10410775;28;1957;-66
2023/03/18 20:14:47;;;;;;;;;;;;;;;9.81;100.00;95278.84;10437862;28;1908;-66
2023/03/18 20:19:50;;;;;;;;;;;;;;;9.70;100.00;95276.22;10414646;28;1976;-65
2023/03/18 20:24:53;;;;;;;;;;;;;;;9.67;100.00;95276.81;10410373;28;1991;-64
2023/03/18 20:29:56;;;;;;;;;;;;;;;9.64;100.00;95276.56;10409521;28;1966;-65
2023/03/18 20:35:00;;;;;;;;;;;;;;;9.63;100.00;95278.44;10411910;28;1910;-65
2023/03/18 20:40:05;;;;;;;;;;;;;;;9.56;100.00;95291.38;10407011;28;2067;-65
2023/03/18 20:45:18;;;;;;;;;;;;;;;9.46;100.00;95280.69;10408110;28;2014;-69
2023/03/18 20:50:30;;;;;;;;;;;;;;;9.40;100.00;95292.53;10426302;28;2036;-66
2023/03/18 20:55:43;;;;;;;;;;;;;;;9.31;100.00;95286.16;10404520;28;2004;-66
2023/03/18 21:00:46;;;;;;;;;;;;;;;9.25;100.00;95282.69;10402745;28;2012;-65
2023/03/18 21:05:48;;;;;;;;;;;;;;;9.16;100.00;95279.81;10422464;28;1964;-65
2023/03/18 21:10:51;;;;;;;;;;;;;;;9.05;100.00;95285.50;10406290;28;1998;-66
2023/03/18 21:15:54;;;;;;;;;;;;;;;8.93;100.00;95275.09;10403971;28;2304;-67
2023/03/18 21:20:56;;;;;;;;;;;;;;;8.97;100.00;95284.19;10405452;28;1971;-64
2023/03/18 21:25:58;;;;;;;;;;;;;;;8.87;100.00;95286.91;10400268;28;1958;-65
2023/03/18 21:31:01;;;;;;;;;;;;;;;8.77;100.00;95284.25;10398864;28;1915;-64
2023/03/18 21:36:05;;;;;;;;;;;;;;;8.76;100.00;95285.31;10401795;28;2027;-66
2023/03/18 21:41:08;;;;;;;;;;;;;;;8.76;100.00;95285.31;10398723;28;2029;-65
2023/03/18 21:46:11;;;;;;;;;;;;;;;8.78;100.00;95293.88;10402391;28;2073;-65
2023/03/18 21:51:14;;;;;;;;;;;;;;;8.75;100.00;95289.88;10435779;28;2000;-64
2023/03/18 21:56:36;;;;;;;;;;;;;;;8.69;100.00;95274.09;10398169;28;2018;-67
2023/03/18 22:01:40;;;;;;;;;;;;;;;8.60;100.00;95271.19;10411418;28;2105;-66
2023/03/18 22:06:43;;;;;;;;;;;;;;;8.50;100.00;95272.00;10400110;28;2085;-64
2023/03/18 22:11:46;;;;;;;;;;;;;;;8.42;100.00;95272.59;10403180;28;2031;-66
2023/03/18 22:16:50;;;;;;;;;;;;;;;8.40;100.00;95272.06;10402481;28;2279;-65
2023/03/18 22:22:00;;;;;;;;;;;;;;;8.33;100.00;95266.13;10399972;28;2051;-64
2023/03/18 22:27:03;;;;;;;;;;;;;;;8.28;100.00;95266.97;10390544;28;2012;-66
2023/03/18 22:32:07;;;;;;;;;;;;;;;8.24;100.00;95278.47;10403294;28;2071;-68
2023/03/18 22:37:10;;;;;;;;;;;;;;;8.20;100.00;95266.69;10396917;28;2107;-64
2023/03/18 22:42:13;;;;;;;;;;;;;;;8.16;100.00;95261.09;10402370;28;1981;-65
2023/03/18 22:47:16;;;;;;;;;;;;;;;8.10;100.00;95275.56;10409377;28;2024;-65
2023/03/18 22:52:19;;;;;;;;;;;;;;;8.07;100.00;95268.84;10408156;28;2081;-65
2023/03/18 22:57:22;;;;;;;;;;;;;;;8.12;100.00;95276.88;10407988;28;1958;-65
2023/03/18 23:02:25;;;;;;;;;;;;;;;8.12;100.00;95271.53;10407904;28;1988;-65
2023/03/18 23:07:27;;;;;;;;;;;;;;;8.18;100.00;95279.56;10421707;28;1990;-64
2023/03/18 23:12:31;;;;;;;;;;;;;;;8.09;100.00;95277.44;10400564;28;2004;-65
2023/03/18 23:17:33;;;;;;;;;;;;;;;8.20;100.00;95280.06;10403866;28;1953;-63
2023/03/18 23:22:40;;;;;;;;;;;;;;;8.22;100.00;95280.63;10403698;28;2080;-64
2023/03/18 23:27:43;;;;;;;;;;;;;;;8.23;100.00;95276.88;10408600;28;2061;-64
2023/03/18 23:32:46;;;;;;;;;;;;;;;8.16;100.00;95277.16;10400549;28;2272;-65
2023/03/18 23:37:50;;;;;;;;;;;;;;;8.18;100.00;95279.56;10404343;28;2038;-64
2023/03/18 23:42:52;;;;;;;;;;;;;;;8.09;100.00;95293.50;10405250;28;2076;-65
2023/03/18 23:47:55;;;;;;;;;;;;;;;8.01;100.00;95293.22;10408277;28;1993;-67
2023/03/18 23:52:57;;;;;;;;;;;;;;;7.91;100.00;95302.06;10405368;28;2232;-65
2023/03/18 23:58:00;;;;;;;;;;;;;;;7.81;100.00;95302.84;10403660;28;2001;-67
